Time;durP1;ratioP1;P1;durP2;ratioP2;P2;SDS_P1;SDS_P2;PMS_P1;PMS_P2;Temp;Humidity;BMP_temperature;BMP_pressure;BME280_temperature;BME280_humidity;BME280_pressure;Samples;Min_cycle;Max_cycle;Signal;HPM_P1;HPM_P2
2022/11/10 00:00:34;;;;;;;60.78;35.73;;;;;;;9.18;90.50;100614.81;1783985;80;27451;-83
2022/11/10 00:03:19;;;;;;;60.58;34.00;;;;;;;9.19;90.60;100618.67;1778363;78;25851;-82
2022/11/10 00:06:06;;;;;;;58.02;36.23;;;;;;;9.18;90.72;100626.84;1768579;80;25787;-82
2022/11/10 00:08:50;;;;;;;62.20;34.95;;;;;;;9.18;90.85;100637.53;1775974;80;25396;-81
2022/11/10 00:11:35;;;;;;;65.05;37.40;;;;;;;9.19;90.95;100632.53;1784543;78;25286;-83
2022/11/10 00:17:23;;;;;;;60.03;35.28;;;;;;;9.23;91.25;100639.17;1778708;78;25765;-83
2022/11/10 00:20:09;;;;;;;68.10;37.13;;;;;;;9.24;91.37;100644.34;1783610;78;26361;-83
2022/11/10 00:22:55;;;;;;;57.35;34.50;;;;;;;9.25;91.42;100645.17;1786749;78;26166;-83
2022/11/10 00:25:39;;;;;;;64.62;35.13;;;;;;;9.26;91.44;100638.80;1785112;78;25809;-84
2022/11/10 00:28:24;;;;;;;65.57;36.60;;;;;;;9.25;91.53;100635.33;1786887;78;27448;-82
2022/11/10 00:31:09;;;;;;;59.58;36.20;;;;;;;9.27;91.63;100636.48;1783087;78;25863;-83
2022/11/10 00:33:55;;;;;;;64.77;35.50;;;;;;;9.28;91.67;100643.50;1777207;79;25310;-83
2022/11/10 00:36:40;;;;;;;56.45;34.53;;;;;;;9.29;91.70;100645.15;1795663;78;26624;-83
2022/11/10 00:39:25;;;;;;;61.68;36.13;;;;;;;9.29;91.76;100647.32;1788083;78;25893;-83
2022/11/10 00:42:10;;;;;;;62.45;34.88;;;;;;;9.31;91.81;100653.82;1789713;78;27462;-83
2022/11/10 00:44:55;;;;;;;66.67;38.15;;;;;;;9.31;91.85;100653.32;1787033;78;25811;-83
2022/11/10 00:47:39;;;;;;;68.30;36.88;;;;;;;9.32;91.85;100640.80;1813294;77;25876;-82
2022/11/10 00:50:24;;;;;;;58.40;35.60;;;;;;;9.32;91.83;100645.61;1792646;77;26244;-83
2022/11/10 00:53:09;;;;;;;64.20;36.25;;;;;;;9.35;91.90;100648.44;1813528;77;26062;-83
2022/11/10 00:55:54;;;;;;;67.27;35.95;;;;;;;9.37;91.91;100653.63;1764423;78;28625;-83
2022/11/10 00:58:40;;;;;;;63.83;35.05;;;;;;;9.37;91.83;100650.43;1784541;78;25925;-84
2022/11/10 01:01:25;;;;;;;62.88;34.48;;;;;;;9.36;91.75;100647.95;1790271;78;26525;-83
2022/11/10 01:04:10;;;;;;;58.98;35.23;;;;;;;9.34;91.78;100654.81;1781131;78;25947;-83
2022/11/10 01:06:54;;;;;;;61.58;35.92;;;;;;;9.34;91.85;100654.28;1745566;80;26296;-83
2022/11/10 01:09:39;;;;;;;64.37;35.55;;;;;;;9.37;91.87;100661.13;1776881;80;27432;-82
2022/11/10 01:12:28;;;;;;;65.28;35.95;;;;;;;9.36;91.77;100658.14;1772423;78;25802;-82
2022/11/10 01:15:13;;;;;;;59.85;34.50;;;;;;;9.36;91.84;100657.30;1773903;78;25760;-81
2022/11/10 01:17:58;;;;;;;65.00;36.58;;;;;;;9.35;91.97;100655.13;1777945;80;25867;-82
2022/11/10 01:20:42;;;;;;;62.85;36.75;;;;;;;9.38;92.00;100656.62;1778199;80;25917;-82
2022/11/10 01:23:28;;;;;;;63.45;37.03;;;;;;;9.37;91.99;100655.78;1776460;78;27462;-82
2022/11/10 01:26:14;;;;;;;63.48;36.45;;;;;;;9.38;92.00;100649.94;1780918;78;26491;-83
2022/11/10 01:28:59;;;;;;;67.10;36.83;;;;;;;9.37;92.07;100655.78;1767850;78;26401;-83
2022/11/10 01:31:43;;;;;;;61.55;36.90;;;;;;;9.38;92.08;100645.42;1777299;80;26347;-83
2022/11/10 01:34:28;;;;;;;64.27;36.40;;;;;;;9.40;92.14;100641.23;1775671;78;25764;-83
2022/11/10 01:37:13;;;;;;;58.95;34.67;;;;;;;9.41;92.22;100637.03;1765833;78;27464;-82
2022/11/10 01:39:58;;;;;;;63.83;35.13;;;;;;;9.43;92.19;100637.68;1777441;78;26370;-83
2022/11/10 01:42:55;;;;;;;58.05;32.95;;;;;;;9.46;92.15;100641.84;1782122;80;25870;-84
2022/11/10 01:45:53;;;;;;;58.38;34.53;;;;;;;9.47;92.07;100643.53;1790327;78;26291;-83
2022/11/10 01:49:00;;;;;;;58.75;34.92;;;;;;;9.46;91.99;100645.86;1772945;78;26498;-82
2022/11/10 01:52:10;;;;;;;58.38;33.45;;;;;;;9.46;92.01;100653.87;1776593;78;27588;-82
2022/11/10 01:54:55;;;;;;;61.63;34.53;;;;;;;9.42;91.86;100656.09;1782689;78;25734;-82
2022/11/10 01:57:41;;;;;;;57.53;34.92;;;;;;;9.40;91.95;100653.26;1784729;78;25762;-83
2022/11/10 02:00:26;;;;;;;65.08;35.98;;;;;;;9.39;91.97;100656.96;1772608;79;26862;-83
2022/11/10 02:03:19;;;;;;;61.53;34.27;;;;;;;9.37;92.06;100659.78;1784650;78;26616;-83
2022/11/10 02:06:05;;;;;;;61.48;34.80;;;;;;;9.38;92.16;100662.80;1788570;78;28431;-83
2022/11/10 02:08:52;;;;;;;60.33;34.75;;;;;;;9.39;92.27;100663.64;1773136;78;26344;-84
2022/11/10 02:11:39;;;;;;;60.60;34.33;;;;;;;9.42;92.34;100667.28;1805856;77;25839;-84
2022/11/10 02:14:24;;;;;;;58.02;34.45;;;;;;;9.44;92.34;100668.77;1779522;78;26219;-83
2022/11/10 02:17:10;;;;;;;61.30;34.78;;;;;;;9.46;92.34;100669.92;1802762;77;26437;-84
2022/11/10 02:20:03;;;;;;;65.87;36.30;;;;;;;9.47;92.29;100678.28;1780597;79;27620;-83
2022/11/10 02:22:48;;;;;;;58.58;33.90;;;;;;;9.47;92.30;100675.61;1789090;78;25836;-84
2022/11/10 02:25:33;;;;;;;59.75;34.38;;;;;;;9.48;92.36;100680.77;1802314;78;25667;-83
2022/11/10 02:28:18;;;;;;;63.50;35.60;;;;;;;9.49;92.36;100682.95;1803701;78;25454;-83
2022/11/10 02:31:04;;;;;;;71.65;38.02;;;;;;;9.49;92.42;100685.63;1792710;78;25714;-83
2022/11/10 02:33:49;;;;;;;64.50;35.70;;;;;;;9.49;92.45;100690.47;1816673;78;27449;-83
2022/11/10 02:36:34;;;;;;;59.80;35.63;;;;;;;9.52;92.56;100693.27;1802756;78;25731;-83
2022/11/10 02:39:19;;;;;;;60.65;35.58;;;;;;;9.53;92.59;100685.59;1783058;78;25838;-83
2022/11/10 02:42:09;;;;;;;64.20;34.70;;;;;;;9.53;92.57;100686.43;1769335;78;26512;-83
2022/11/10 02:44:51;;;;;;;64.20;35.33;;;;;;;9.52;92.56;100686.09;1782363;78;25880;-83
2022/11/10 02:47:36;;;;;;;59.33;34.03;;;;;;;9.53;92.63;100687.77;1788606;78;27456;-83
2022/11/10 02:50:20;;;;;;;60.95;34.50;;;;;;;9.55;92.72;100687.08;1785694;78;25577;-83
2022/11/10 02:53:06;;;;;;;59.03;34.27;;;;;;;9.58;92.72;100697.41;1784711;78;25900;-83
2022/11/10 02:55:50;;;;;;;57.60;35.23;;;;;;;9.59;92.70;100695.07;1780353;78;26296;-83
2022/11/10 02:58:35;;;;;;;58.25;34.27;;;;;;;9.60;92.68;100697.25;1784743;78;25986;-82
2022/11/10 03:01:20;;;;;;;62.13;35.63;;;;;;;9.62;92.70;100699.23;1767375;78;27392;-83
2022/11/10 03:04:05;;;;;;;57.13;33.53;;;;;;;9.62;92.68;100690.72;1771907;80;25787;-82
2022/11/10 03:06:50;;;;;;;64.87;34.53;;;;;;;9.62;92.65;100695.23;1790379;78;25802;-82
2022/11/10 03:09:35;;;;;;;58.42;34.88;;;;;;;9.62;92.62;100698.74;1794395;78;25839;-83
2022/11/10 03:12:19;;;;;;;57.98;34.65;;;;;;;9.62;92.67;100705.42;1761888;80;25747;-84
2022/11/10 03:15:05;;;;;;;60.65;35.03;;;;;;;9.62;92.71;100704.59;1769679;78;27438;-82
2022/11/10 03:17:51;;;;;;;61.60;34.58;;;;;;;9.64;92.80;100707.91;1781616;78;26512;-83
2022/11/10 03:20:35;;;;;;;59.90;34.03;;;;;;;9.64;92.82;100700.73;1753678;80;26441;-83
2022/11/10 03:23:20;;;;;;;56.33;33.05;;;;;;;9.64;92.79;100711.43;1772231;80;26172;-83
2022/11/10 03:26:06;;;;;;;59.70;33.73;;;;;;;9.61;92.78;100704.25;1776560;79;25299;-83
2022/11/10 03:28:51;;;;;;;61.25;34.95;;;;;;;9.60;92.87;100709.28;1780694;79;27521;-83
2022/11/10 03:31:36;;;;;;;58.23;34.58;;;;;;;9.60;93.01;100706.08;1788803;78;26283;-83
2022/11/10 03:34:20;;;;;;;60.48;33.00;;;;;;;9.58;92.94;100708.09;1784399;79;26514;-83
2022/11/10 03:37:05;;;;;;;57.23;33.38;;;;;;;9.53;93.02;100705.15;1783288;79;25633;-83
2022/11/10 03:39:50;;;;;;;67.37;34.80;;;;;;;9.50;93.13;100712.17;1783051;78;25802;-83
2022/11/10 03:42:34;;;;;;;57.20;32.17;;;;;;;9.48;93.40;100714.69;1790490;79;27443;-82
2022/11/10 03:45:19;;;;;;;61.77;34.50;;;;;;;9.46;93.53;100729.58;1784500;79;25736;-82
2022/11/10 03:48:05;;;;;;;59.15;34.80;;;;;;;9.45;93.65;100725.76;1777198;79;26370;-82
2022/11/10 03:50:49;;;;;;;59.05;34.18;;;;;;;9.46;93.86;100729.58;1776120;79;25888;-83
2022/11/10 03:53:34;;;;;;;61.13;34.83;;;;;;;9.45;93.98;100728.43;1781621;79;25855;-84
2022/11/10 03:56:19;;;;;;;57.45;34.83;;;;;;;9.45;94.16;100730.61;1765683;79;28281;-83
2022/11/10 03:59:03;;;;;;;64.25;35.00;;;;;;;9.46;94.30;100732.75;1784140;79;25785;-83
2022/11/10 04:01:48;;;;;;;60.65;34.00;;;;;;;9.45;94.41;100733.28;1786828;79;25823;-84
2022/11/10 04:10:38;;;;;;;62.38;33.90;;;;;;;9.45;94.88;100738.63;1712342;82;27463;-82
2022/11/10 04:16:26;;;;;;;53.73;33.15;;;;;;;9.44;95.20;100738.28;1784727;78;25740;-82
2022/11/10 04:19:10;;;;;;;57.93;33.67;;;;;;;9.46;95.39;100742.95;1796010;78;25774;-82
2022/11/10 04:21:55;;;;;;;62.40;33.80;;;;;;;9.47;95.50;100745.97;1787185;78;25875;-82
2022/11/10 04:24:40;;;;;;;58.98;31.93;;;;;;;9.48;95.65;100746.77;1785505;78;27447;-81
2022/11/10 04:27:25;;;;;;;59.50;34.25;;;;;;;9.50;95.79;100734.91;1773894;79;25822;-82
2022/11/10 04:30:10;;;;;;;61.50;34.65;;;;;;;9.51;95.84;100739.75;1769511;79;25826;-81
2022/11/10 04:32:55;;;;;;;60.92;33.92;;;;;;;9.51;95.92;100747.28;1790632;78;26213;-82
2022/11/10 04:35:39;;;;;;;55.50;32.20;;;;;;;9.52;96.07;100749.42;1819677;78;25242;-81
2022/11/10 04:38:24;;;;;;;59.15;33.15;;;;;;;9.51;96.23;100743.27;1809367;78;27516;-82
2022/11/10 04:41:09;;;;;;;60.55;32.83;;;;;;;9.51;96.35;100755.80;1815604;78;25271;-81
2022/11/10 04:43:54;;;;;;;56.88;34.25;;;;;;;9.52;96.54;100753.44;1784232;78;26332;-83
2022/11/10 04:46:39;;;;;;;63.92;33.98;;;;;;;9.52;96.71;100753.44;1779473;78;25759;-83
2022/11/10 04:49:24;;;;;;;55.73;32.13;;;;;;;9.54;96.88;100759.47;1789368;78;25777;-83
2022/11/10 04:52:09;;;;;;;60.43;32.88;;;;;;;9.55;97.02;100761.95;1790165;78;27431;-82
2022/11/10 04:54:54;;;;;;;60.63;32.73;;;;;;;9.54;97.17;100754.92;1795396;78;25956;-82
2022/11/10 04:57:38;;;;;;;54.95;32.67;;;;;;;9.53;97.28;100760.46;1783509;78;26103;-83
2022/11/10 05:00:23;;;;;;;62.23;33.60;;;;;;;9.53;97.51;100759.13;1786713;78;26184;-83
2022/11/10 05:03:10;;;;;;;57.85;34.38;;;;;;;9.53;97.64;100760.46;1789072;78;25853;-82
2022/11/10 05:05:55;;;;;;;59.67;32.58;;;;;;;9.53;97.81;100765.81;1793971;78;28466;-82
2022/11/10 05:08:41;;;;;;;58.38;32.50;;;;;;;9.54;97.96;100770.97;1789917;78;26236;-82
2022/11/10 05:11:26;;;;;;;59.98;33.80;;;;;;;9.56;98.09;100773.50;1768623;77;26317;-82
2022/11/10 05:14:11;;;;;;;59.93;33.30;;;;;;;9.58;98.21;100775.48;1792574;78;25808;-82
2022/11/10 05:16:55;;;;;;;58.87;32.20;;;;;;;9.59;98.35;100774.45;1788976;77;25944;-83
2022/11/10 05:19:40;;;;;;;61.45;33.80;;;;;;;9.59;98.44;100777.97;1776170;78;27479;-82
2022/11/10 05:22:24;;;;;;;65.05;33.73;;;;;;;9.59;98.58;100775.80;1783206;78;26278;-82
2022/11/10 05:25:10;;;;;;;57.53;33.58;;;;;;;9.60;98.74;100777.48;1775220;78;26029;-83
2022/11/10 05:27:54;;;;;;;55.70;31.37;;;;;;;9.62;98.86;100781.64;1769035;78;26236;-83
2022/11/10 05:30:40;;;;;;;58.33;32.20;;;;;;;9.61;99.04;100784.48;1776793;78;25868;-83
2022/11/10 05:33:25;;;;;;;57.75;31.35;;;;;;;9.60;99.11;100784.97;1781612;78;27437;-83
2022/11/10 05:36:10;;;;;;;62.80;33.45;;;;;;;9.60;99.29;100785.50;1776641;78;26143;-82
2022/11/10 05:38:54;;;;;;;59.13;32.45;;;;;;;9.61;99.41;100790.66;1774040;78;26538;-83
2022/11/10 05:41:39;;;;;;;58.50;31.90;;;;;;;9.62;99.53;100787.00;1772382;78;25787;-82
2022/11/10 05:44:24;;;;;;;59.05;32.33;;;;;;;9.66;99.64;100795.00;1774046;78;25831;-83
2022/11/10 05:47:09;;;;;;;59.73;32.00;;;;;;;9.68;99.74;100801.49;1775984;78;27458;-83
2022/11/10 05:49:54;;;;;;;59.75;33.42;;;;;;;9.69;99.77;100802.65;1776380;78;26204;-83
2022/11/10 05:52:42;;;;;;;54.13;31.10;;;;;;;9.72;99.82;100807.66;1775359;78;25896;-82
2022/11/10 05:55:28;;;;;;;60.73;32.83;;;;;;;9.75;99.91;100817.17;1766217;78;26505;-82
2022/11/10 05:58:13;;;;;;;54.13;30.65;;;;;;;9.77;99.92;100819.17;1775525;78;25648;-82
2022/11/10 06:00:57;;;;;;;52.60;31.00;;;;;;;9.76;100.00;100820.16;1783793;78;27524;-81
2022/11/10 06:03:42;;;;;;;58.08;32.58;;;;;;;9.77;100.00;100821.84;1781188;78;25838;-81
2022/11/10 06:06:27;;;;;;;55.65;31.17;;;;;;;9.81;100.00;100829.34;1774375;78;26300;-82
2022/11/10 06:09:11;;;;;;;57.25;32.48;;;;;;;9.84;100.00;100827.64;1778293;78;25841;-83
2022/11/10 06:11:56;;;;;;;56.42;32.23;;;;;;;9.88;100.00;100828.14;1772456;78;26501;-83
2022/11/10 06:14:41;;;;;;;56.37;32.28;;;;;;;9.91;100.00;100841.98;1783250;78;28478;-83
2022/11/10 06:17:26;;;;;;;58.17;32.80;;;;;;;9.91;100.00;100861.21;1765937;79;26798;-82
2022/11/10 06:20:13;;;;;;;59.05;31.55;;;;;;;9.89;100.00;100864.08;1787202;78;25848;-82
2022/11/10 06:23:12;;;;;;;60.00;33.88;;;;;;;9.90;100.00;100873.75;1775826;78;25829;-82
2022/11/10 06:25:57;;;;;;;57.45;31.82;;;;;;;9.89;100.00;100877.95;1772114;78;26013;-82
2022/11/10 06:28:41;;;;;;;58.95;31.70;;;;;;;9.89;100.00;100884.14;1775996;78;26918;-83
2022/11/10 06:31:26;;;;;;;57.98;32.50;;;;;;;9.88;100.00;100888.34;1787819;78;25345;-82
2022/11/10 06:34:11;;;;;;;56.65;30.52;;;;;;;9.86;100.00;100897.86;1794153;78;25729;-83
2022/11/10 06:36:56;;;;;;;52.50;29.60;;;;;;;9.85;100.00;100893.53;1786207;78;25758;-83
2022/11/10 06:39:40;;;;;;;57.15;31.05;;;;;;;9.84;100.00;100897.20;1787741;78;25827;-83
2022/11/10 06:42:25;;;;;;;60.30;30.40;;;;;;;9.84;100.00;100902.55;1772314;80;27451;-83
2022/11/10 06:45:10;;;;;;;54.58;30.15;;;;;;;9.86;100.00;100903.20;1766179;79;25882;-82
2022/11/10 06:48:06;;;;;;;54.08;30.08;;;;;;;9.88;100.00;100899.05;1772755;80;26535;-82
2022/11/10 06:50:51;;;;;;;56.92;30.48;;;;;;;9.89;100.00;100894.00;1755140;79;25620;-83
2022/11/10 06:53:35;;;;;;;55.58;29.48;;;;;;;9.88;100.00;100903.05;1803949;78;26436;-83
2022/11/10 06:56:20;;;;;;;55.03;29.12;;;;;;;9.89;100.00;100908.22;1803532;78;27475;-83
2022/11/10 06:59:05;;;;;;;57.38;30.17;;;;;;;9.90;100.00;100903.71;1806569;78;25880;-83
2022/11/10 07:01:50;;;;;;;59.35;31.30;;;;;;;9.92;100.00;100911.87;1791424;78;25738;-82
2022/11/10 07:04:34;;;;;;;54.60;30.10;;;;;;;9.94;100.00;100910.38;1775817;78;26661;-82
2022/11/10 07:07:19;;;;;;;48.92;28.07;;;;;;;9.98;100.00;100921.90;1778880;78;26417;-82
2022/11/10 07:10:05;;;;;;;50.00;28.38;;;;;;;9.99;100.00;100934.25;1766730;78;27446;-82
2022/11/10 07:12:58;;;;;;;52.93;28.62;;;;;;;10.01;100.00;100936.75;1778400;78;26447;-82
2022/11/10 07:15:43;;;;;;;54.83;30.82;;;;;;;10.01;100.00;100939.42;1800812;78;25731;-83
2022/11/10 07:18:27;;;;;;;52.15;29.00;;;;;;;10.02;100.00;100939.27;1790776;78;25990;-82
2022/11/10 07:21:12;;;;;;;58.98;31.35;;;;;;;10.05;100.00;100937.56;1782899;78;25742;-82
2022/11/10 07:23:57;;;;;;;51.37;29.48;;;;;;;10.08;100.00;100937.72;1773063;78;27438;-82
2022/11/10 07:26:41;;;;;;;51.65;28.67;;;;;;;10.09;100.00;100938.07;1779952;78;25850;-82
2022/11/10 07:29:26;;;;;;;48.38;28.05;;;;;;;10.10;100.00;100943.73;1780357;78;25902;-84
2022/11/10 07:32:10;;;;;;;56.10;29.37;;;;;;;10.12;100.00;100939.07;1780030;78;25885;-83
2022/11/10 07:34:55;;;;;;;51.48;27.85;;;;;;;10.15;100.00;100941.91;1781182;78;25803;-83
2022/11/10 07:37:40;;;;;;;49.20;27.27;;;;;;;10.17;100.00;100945.23;1779889;78;27445;-83
2022/11/10 07:40:25;;;;;;;54.53;27.58;;;;;;;10.19;100.00;100949.41;1771500;78;26265;-83
2022/11/10 07:43:10;;;;;;;47.85;26.50;;;;;;;10.20;100.00;100960.44;1776886;78;26515;-86
2022/11/10 07:45:54;;;;;;;52.03;28.12;;;;;;;10.20;100.00;100964.45;1771581;79;25740;-86
2022/11/10 07:48:39;;;;;;;45.52;25.10;;;;;;;10.24;100.00;100975.66;1762460;80;25896;-84
2022/11/10 07:51:25;;;;;;;52.98;27.25;;;;;;;10.25;100.00;100976.81;1756161;79;28367;-85
2022/11/10 07:54:11;;;;;;;46.45;25.10;;;;;;;10.25;100.00;100971.95;1792624;78;25785;-86
2022/11/10 07:56:55;;;;;;;47.13;26.97;;;;;;;10.28;100.00;100979.16;1779356;78;25763;-86
2022/11/10 07:59:40;;;;;;;46.90;25.08;;;;;;;10.29;100.00;100984.83;1767721;80;26327;-86
2022/11/10 08:02:25;;;;;;;47.95;27.17;;;;;;;10.30;100.00;100971.78;1782076;78;26477;-86
2022/11/10 08:05:33;;;;;;;;;;;;;;;;;;;;;
2022/11/10 08:08:15;;;;;;;50.08;28.70;;;;;;;10.38;100.00;100993.65;1717291;80;26071;-91
2022/11/10 08:10:59;;;;;;;42.95;24.23;;;;;;;10.42;100.00;100998.98;1789919;78;25330;-93
2022/11/10 08:13:45;;;;;;;42.38;25.05;;;;;;;10.45;100.00;100999.48;1790945;78;25634;-91
2022/11/10 08:16:32;;;;;;;48.45;25.95;;;;;;;10.48;100.00;100996.93;1763160;78;25532;-92
2022/11/10 08:19:26;;;;;;;;;;;;;;;;;;;;;
2022/11/10 08:22:16;;;;;;;;;;;;;;;;;;;;;
2022/11/10 08:24:55;;;;;;;47.33;27.50;;;;;;;10.55;100.00;101001.42;1727506;80;25404;-92
2022/11/10 08:27:47;;;;;;;45.48;28.23;;;;;;;10.58;100.00;101006.44;1802206;78;25709;-94
2022/11/10 08:30:29;;;;;;;41.73;23.80;;;;;;;10.62;100.00;101014.94;1764312;79;25358;-93
2022/11/10 08:33:37;;;;;;;;;;;;;;;;;;;;;
2022/11/10 08:36:15;;;;;;;41.58;25.88;;;;;;;10.70;100.00;101029.63;1779452;78;25357;-90
2022/11/10 08:39:00;;;;;;;44.53;24.95;;;;;;;10.72;100.00;101032.45;1778094;78;25695;-87
2022/11/10 08:41:44;;;;;;;41.45;24.60;;;;;;;10.74;100.00;101042.48;1769240;78;25466;-85
2022/11/10 08:44:29;;;;;;;37.58;22.95;;;;;;;10.75;100.00;101043.33;1766843;80;25315;-88
2022/11/10 08:47:14;;;;;;;36.42;21.73;;;;;;;10.78;100.00;101052.34;1773170;80;27474;-85
2022/11/10 08:49:58;;;;;;;38.83;22.77;;;;;;;10.78;100.00;101043.80;1771882;80;26349;-87
2022/11/10 08:52:45;;;;;;;37.23;22.02;;;;;;;10.82;100.00;101045.11;1759321;80;25984;-86
2022/11/10 08:55:30;;;;;;;38.67;22.52;;;;;;;10.83;100.00;101053.49;1782860;78;25841;-82
2022/11/10 08:58:21;;;;;;;38.10;22.67;;;;;;;10.83;100.00;101062.03;1782106;78;25361;-85
2022/11/10 09:01:11;;;;;;;38.75;22.45;;;;;;;10.85;100.00;101062.19;1791792;75;27385;-89
2022/11/10 09:03:56;;;;;;;40.40;23.87;;;;;;;10.88;100.00;101066.86;1827911;77;25259;-84
2022/11/10 09:06:40;;;;;;;45.55;24.47;;;;;;;10.91;100.00;101070.02;1825342;76;25745;-86
2022/11/10 09:09:25;;;;;;;36.93;22.42;;;;;;;10.94;100.00;101074.19;1831068;77;25808;-87
2022/11/10 09:12:10;;;;;;;41.30;22.52;;;;;;;10.99;100.00;101075.84;1839088;76;25740;-83
2022/11/10 09:14:54;;;;;;;37.45;23.40;;;;;;;11.02;100.00;101079.48;1834346;76;28434;-84
2022/11/10 09:17:40;;;;;;;43.25;23.42;;;;;;;11.05;100.00;101079.15;1801314;78;25865;-87
2022/11/10 09:20:27;;;;;;;36.17;20.70;;;;;;;11.08;100.00;101079.61;1804340;78;26428;-86
2022/11/10 09:23:16;;;;;;;34.75;21.30;;;;;;;11.09;100.00;101084.48;1818805;76;25811;-82
2022/11/10 09:26:00;;;;;;;38.17;21.25;;;;;;;11.10;100.00;101092.33;1819593;76;25742;-83
2022/11/10 09:28:45;;;;;;;37.13;21.93;;;;;;;11.13;100.00;101097.85;1825944;78;28193;-86
2022/11/10 09:31:30;;;;;;;37.95;22.95;;;;;;;11.14;100.00;101097.66;1832008;77;25732;-86
2022/11/10 09:34:15;;;;;;;39.75;21.35;;;;;;;11.17;100.00;101097.82;1810695;78;26110;-85
2022/11/10 09:37:01;;;;;;;34.25;21.30;;;;;;;11.20;100.00;101107.70;1821837;78;27043;-88
2022/11/10 09:39:46;;;;;;;36.10;21.77;;;;;;;11.24;100.00;101108.17;1818486;77;25297;-85
2022/11/10 09:42:39;;;;;;;33.23;19.70;;;;;;;11.29;100.00;101111.97;1823038;76;27366;-88
2022/11/10 09:45:28;;;;;;;35.03;20.80;;;;;;;11.33;100.00;101113.27;1810638;77;25839;-81
2022/11/10 09:48:27;;;;;;;36.10;19.92;;;;;;;11.37;100.00;101108.41;1797768;78;25817;-87
2022/11/10 09:51:20;;;;;;;37.38;20.55;;;;;;;11.41;100.00;101107.87;1823117;76;25780;-85
2022/11/10 09:54:19;;;;;;;34.40;21.05;;;;;;;11.44;100.00;101108.03;1785523;79;25779;-86
2022/11/10 09:57:06;;;;;;;36.42;20.25;;;;;;;11.48;100.00;101114.70;1829481;77;27432;-84
2022/11/10 09:59:52;;;;;;;33.38;19.75;;;;;;;11.50;100.00;101107.30;1817121;77;25929;-82
2022/11/10 10:02:44;;;;;;;33.15;19.07;;;;;;;11.52;100.00;101112.82;1825025;76;26451;-85
2022/11/10 10:06:06;;;;;;;33.83;21.17;;;;;;;11.55;100.00;101118.31;1818072;77;25816;-86
2022/11/10 10:09:11;;;;;;;33.05;20.40;;;;;;;11.60;100.00;101124.81;1826879;77;26526;-84
2022/11/10 10:12:32;;;;;;;34.83;19.02;;;;;;;11.71;100.00;101126.27;1832320;77;27443;-81
2022/11/10 10:15:28;;;;;;;32.60;18.45;;;;;;;11.78;100.00;101129.06;1802684;78;26243;-87
2022/11/10 10:18:28;;;;;;;33.35;18.67;;;;;;;11.85;100.00;101126.80;1794158;78;25838;-83
2022/11/10 10:21:47;;;;;;;31.30;18.85;;;;;;;11.87;100.00;101131.47;1821223;78;26065;-87
2022/11/10 10:24:33;;;;;;;30.48;17.85;;;;;;;11.88;100.00;101137.69;1792932;79;25749;-86
2022/11/10 10:27:27;;;;;;;36.73;19.98;;;;;;;11.91;100.00;101131.97;1792884;79;27606;-86
2022/11/10 10:30:17;;;;;;;31.87;18.00;;;;;;;11.93;100.00;101136.64;1787944;79;25861;-80
2022/11/10 10:33:21;;;;;;;32.45;19.98;;;;;;;11.94;100.00;101132.42;1787833;78;26276;-80
2022/11/10 10:36:11;;;;;;;28.57;17.98;;;;;;;11.96;100.00;101138.44;1820491;76;25778;-80
2022/11/10 10:39:20;;;;;;;31.25;18.20;;;;;;;11.96;100.00;101142.97;1790900;77;25855;-80
2022/11/10 10:42:10;;;;;;;31.15;18.37;;;;;;;11.96;100.00;101142.97;1818295;76;27618;-80
2022/11/10 10:45:27;;;;;;;29.27;17.98;;;;;;;11.97;100.00;101135.25;1811002;78;25913;-80
2022/11/10 10:48:28;;;;;;;28.12;18.12;;;;;;;11.97;100.00;101134.75;1794139;78;25735;-80
2022/11/10 10:51:29;;;;;;;27.77;16.47;;;;;;;11.99;100.00;101142.62;1792076;78;25769;-79
2022/11/10 10:54:33;;;;;;;27.55;16.52;;;;;;;11.99;100.00;101144.80;1824301;77;25927;-80
2022/11/10 10:57:28;;;;;;;25.57;16.62;;;;;;;12.00;100.00;101156.35;1834631;76;27459;-80
2022/11/10 11:00:22;;;;;;;29.20;16.93;;;;;;;11.98;100.00;101152.52;1818160;76;25819;-80
2022/11/10 11:03:14;;;;;;;30.68;17.00;;;;;;;11.98;100.00;101152.52;1823270;76;26506;-80
2022/11/10 11:06:07;;;;;;;27.65;17.17;;;;;;;11.98;100.00;101157.05;1821259;76;26795;-81
2022/11/10 11:09:09;;;;;;;30.25;20.75;;;;;;;12.00;100.00;101152.33;1785594;78;26087;-80
2022/11/10 11:12:11;;;;;;;26.05;16.02;;;;;;;12.02;100.00;101153.81;1798546;78;27447;-82
2022/11/10 11:15:28;;;;;;;31.17;17.30;;;;;;;12.05;100.00;101150.78;1825369;77;26071;-82
2022/11/10 11:18:19;;;;;;;24.82;15.63;;;;;;;12.08;100.00;101151.73;1819911;76;25960;-87
2022/11/10 11:21:29;;;;;;;22.25;14.35;;;;;;;12.13;100.00;101148.50;1820790;76;25835;-85
2022/11/10 11:24:34;;;;;;;24.92;15.60;;;;;;;12.18;100.00;101152.83;1816224;76;25909;-89
2022/11/10 11:28:02;;;;;;;27.67;15.00;;;;;;;12.23;100.00;101166.02;1820530;76;28264;-88
2022/11/10 11:31:20;;;;;;;28.10;15.80;;;;;;;12.26;100.00;101156.27;1828826;76;25290;-90
2022/11/10 11:34:25;;;;;;;25.80;15.50;;;;;;;12.28;100.00;101160.94;1782322;77;25760;-88
2022/11/10 11:37:27;;;;;;;24.87;16.00;;;;;;;12.31;100.00;101162.43;1817614;77;25783;-87
2022/11/10 11:40:38;;;;;;;30.65;15.05;;;;;;;12.34;100.00;101164.73;1813307;78;25897;-87
2022/11/10 11:43:40;;;;;;;32.15;21.48;;;;;;;12.33;100.00;101169.30;1823245;76;27461;-88
2022/11/10 11:46:34;;;;;;;22.40;15.28;;;;;;;12.36;100.00;101169.41;1824749;76;25688;-88
2022/11/10 11:49:47;;;;;;;23.65;13.75;;;;;;;12.39;100.00;101171.23;1792635;79;25438;-87
2022/11/10 11:52:54;;;;;;;19.62;13.03;;;;;;;12.46;100.00;101179.89;1789391;79;25829;-88
2022/11/10 11:55:59;;;;;;;24.50;15.85;;;;;;;12.47;100.00;101179.70;1790051;79;26139;-87
2022/11/10 11:58:58;;;;;;;26.17;14.55;;;;;;;12.48;100.00;101186.76;1803755;76;27435;-86
2022/11/10 12:01:54;;;;;;;32.33;19.48;;;;;;;12.48;100.00;101189.45;1801069;76;26087;-85
2022/11/10 12:05:14;;;;;;;21.57;13.40;;;;;;;12.47;100.00;101193.14;1798775;78;25827;-83
2022/11/10 12:08:07;;;;;;;33.08;19.65;;;;;;;12.44;100.00;101196.71;1825308;76;25807;-87
2022/11/10 12:11:06;;;;;;;30.20;17.27;;;;;;;12.42;100.00;101202.28;1796705;78;25777;-87
2022/11/10 12:14:21;;;;;;;24.87;12.98;;;;;;;12.43;100.00;101203.09;1789015;79;27442;-88
2022/11/10 12:17:23;;;;;;;19.48;12.58;;;;;;;12.41;99.27;101199.25;1782732;77;25960;-86
2022/11/10 12:20:51;;;;;;;17.90;12.45;;;;;;;12.40;99.49;101207.81;1811144;77;25973;-86
2022/11/10 12:23:48;;;;;;;18.62;12.30;;;;;;;12.41;99.27;101200.59;1817431;77;25889;-88
2022/11/10 12:26:56;;;;;;;25.50;14.63;;;;;;;12.42;99.11;101205.47;1816140;77;26315;-86
2022/11/10 12:29:59;;;;;;;34.83;18.62;;;;;;;12.45;99.18;101205.08;1806940;77;27484;-85
2022/11/10 12:33:02;;;;;;;19.82;13.72;;;;;;;12.48;99.19;101213.63;1830696;77;25280;-84
2022/11/10 12:36:02;;;;;;;21.33;13.75;;;;;;;12.50;98.99;101214.78;1827910;77;25350;-86
2022/11/10 12:39:10;;;;;;;19.27;13.95;;;;;;;12.51;98.95;101219.96;1812351;77;25766;-81
2022/11/10 12:41:59;;;;;;;20.57;12.90;;;;;;;12.55;99.02;101216.42;1820338;77;25570;-87
2022/11/10 12:44:59;;;;;;;21.42;13.35;;;;;;;12.59;98.86;101228.47;1824342;77;27607;-88
2022/11/10 12:47:45;;;;;;;23.98;14.83;;;;;;;12.61;98.81;101234.48;1812435;78;26571;-87
2022/11/10 12:50:59;;;;;;;23.15;14.80;;;;;;;12.64;98.79;101240.31;1827029;77;25946;-89
2022/11/10 12:53:45;;;;;;;22.55;15.68;;;;;;;12.64;98.46;101248.38;1819667;77;25771;-87
2022/11/10 12:56:37;;;;;;;21.95;14.80;;;;;;;12.63;98.14;101249.91;1807577;77;25847;-87
2022/11/10 12:59:35;;;;;;;23.92;14.45;;;;;;;12.62;98.04;101252.27;1820087;78;27393;-90
2022/11/10 13:02:41;;;;;;;21.73;12.20;;;;;;;12.60;97.90;101261.02;1807613;77;25803;-86
2022/11/10 13:05:40;;;;;;;21.05;12.03;;;;;;;12.59;97.92;101256.18;1830905;77;25820;-81
2022/11/10 13:08:45;;;;;;;16.97;10.20;;;;;;;12.61;97.99;101260.86;1823755;76;25864;-80